Time;durP1;ratioP1;P1;durP2;ratioP2;P2;SDS_P1;SDS_P2;PMS_P1;PMS_P2;Temp;Humidity;BMP_temperature;BMP_pressure;BME280_temperature;BME280_humidity;BME280_pressure;Samples;Min_cycle;Max_cycle;Signal;HPM_P1;HPM_P2
2023/04/19 00:01:22;;;;;;;13.18;3.78;;;13.00;99.90;;;;;;5033145;28;20018;-72
2023/04/19 00:03:48;;;;;;;10.32;4.07;;;13.00;99.90;;;;;;5033091;28;20029;-72
2023/04/19 00:06:14;;;;;;;17.80;4.63;;;13.10;99.90;;;;;;5033034;28;20450;-72
2023/04/19 00:08:41;;;;;;;13.30;4.03;;;13.10;99.90;;;;;;5033043;28;20106;-71
2023/04/19 00:11:08;;;;;;;15.68;4.65;;;13.10;99.90;;;;;;5032314;28;20032;-72
2023/04/19 00:13:34;;;;;;;8.88;3.92;;;13.10;99.90;;;;;;5032995;28;20167;-71
2023/04/19 00:16:02;;;;;;;10.95;4.22;;;12.80;99.90;;;;;;5032481;28;20083;-71
2023/04/19 00:18:28;;;;;;;13.13;3.97;;;12.60;99.90;;;;;;5014431;28;20124;-72
2023/04/19 00:20:55;;;;;;;17.87;4.80;;;12.60;99.90;;;;;;5014580;28;20025;-72
2023/04/19 00:23:21;;;;;;;11.13;4.18;;;12.60;99.90;;;;;;5032251;28;20547;-71
2023/04/19 00:25:48;;;;;;;12.13;4.45;;;12.60;99.90;;;;;;5032777;28;20400;-72
2023/04/19 00:28:15;;;;;;;12.23;4.03;;;12.60;99.90;;;;;;5032435;28;20029;-73
2023/04/19 00:30:41;;;;;;;11.88;4.40;;;12.70;99.90;;;;;;5013608;28;20032;-72
2023/04/19 00:33:11;;;;;;;11.20;4.23;;;12.70;99.90;;;;;;5032197;28;20029;-70
2023/04/19 00:35:41;;;;;;;12.27;4.38;;;12.70;99.90;;;;;;5032082;28;20067;-71
2023/04/19 00:38:07;;;;;;;15.27;4.30;;;12.70;99.90;;;;;;5032411;28;20034;-72
2023/04/19 00:40:33;;;;;;;11.73;4.00;;;12.80;99.90;;;;;;5032460;28;20509;-72
2023/04/19 00:43:00;;;;;;;17.35;4.65;;;12.90;99.90;;;;;;5031830;28;20028;-72
2023/04/19 00:45:26;;;;;;;10.80;3.77;;;12.90;99.90;;;;;;5032247;28;20057;-71
2023/04/19 00:47:53;;;;;;;14.30;4.23;;;13.00;99.90;;;;;;5031921;28;20442;-72
2023/04/19 00:50:19;;;;;;;13.95;4.30;;;12.90;99.90;;;;;;5032324;28;20462;-71
2023/04/19 00:52:46;;;;;;;17.33;4.72;;;12.90;99.90;;;;;;5031909;28;20065;-72
2023/04/19 00:55:12;;;;;;;14.30;4.50;;;12.90;99.90;;;;;;5031926;28;20029;-70
2023/04/19 00:57:39;;;;;;;9.73;4.07;;;12.90;99.90;;;;;;5031898;28;20073;-72
2023/04/19 01:00:08;;;;;;;14.50;4.15;;;12.90;99.90;;;;;;5031824;28;20036;-71
2023/04/19 01:02:36;;;;;;;12.23;4.00;;;12.90;99.90;;;;;;5031730;28;20512;-71
2023/04/19 01:05:02;;;;;;;13.45;4.57;;;12.90;99.90;;;;;;5031693;28;20100;-72
2023/04/19 01:07:28;;;;;;;15.23;4.57;;;12.80;99.90;;;;;;5032107;28;20029;-72
2023/04/19 01:09:54;;;;;;;16.50;5.10;;;12.70;99.90;;;;;;5031628;28;20029;-68
2023/04/19 01:12:20;;;;;;;11.27;4.20;;;12.70;99.90;;;;;;5031293;28;20046;-71
2023/04/19 01:14:46;;;;;;;18.40;5.03;;;12.60;99.90;;;;;;5031647;28;20470;-70
2023/04/19 01:17:13;;;;;;;14.07;4.57;;;12.60;99.90;;;;;;5031231;28;20486;-71
2023/04/19 01:19:39;;;;;;;17.60;5.60;;;12.60;99.90;;;;;;5031931;28;20287;-72
2023/04/19 01:22:06;;;;;;;20.48;4.82;;;12.50;99.90;;;;;;5013549;28;20035;-68
2023/04/19 01:24:33;;;;;;;13.13;4.82;;;12.50;99.90;;;;;;5031380;28;20048;-72
2023/04/19 01:27:01;;;;;;;13.10;5.60;;;12.50;99.90;;;;;;5031452;28;20036;-72
2023/04/19 01:29:27;;;;;;;15.20;5.22;;;12.50;99.90;;;;;;5031383;28;20346;-71
2023/04/19 01:31:54;;;;;;;13.77;7.22;;;12.50;99.90;;;;;;5031491;28;20437;-71
2023/04/19 01:34:22;;;;;;;19.65;9.00;;;12.50;99.90;;;;;;5031597;28;20121;-72
2023/04/19 01:36:48;;;;;;;20.23;7.38;;;12.50;99.90;;;;;;5031130;28;20025;-71
2023/04/19 01:39:14;;;;;;;19.60;7.53;;;12.50;99.90;;;;;;5031393;28;20064;-72
2023/04/19 01:41:40;;;;;;;15.30;6.30;;;12.40;99.90;;;;;;5031990;28;20013;-71
2023/04/19 01:44:07;;;;;;;11.57;5.53;;;12.50;99.90;;;;;;5035312;28;20056;-72
2023/04/19 01:46:37;;;;;;;14.93;5.10;;;12.40;99.90;;;;;;5035479;28;20087;-71
2023/04/19 01:49:03;;;;;;;16.67;5.68;;;12.50;99.90;;;;;;5035292;28;20025;-71
2023/04/19 01:51:30;;;;;;;15.43;5.32;;;12.50;99.90;;;;;;5035359;28;20028;-71
2023/04/19 01:53:57;;;;;;;11.80;4.87;;;12.40;99.90;;;;;;5035009;28;20052;-70
2023/04/19 01:56:23;;;;;;;15.10;5.05;;;12.40;99.90;;;;;;5016942;28;20347;-72
2023/04/19 01:58:49;;;;;;;9.77;4.70;;;12.40;99.90;;;;;;5035454;28;20116;-71
2023/04/19 02:01:17;;;;;;;14.73;5.30;;;12.30;99.90;;;;;;5034890;28;20428;-71
2023/04/19 02:03:43;;;;;;;15.32;5.40;;;12.30;99.90;;;;;;5034968;28;20025;-72
2023/04/19 02:06:13;;;;;;;13.70;5.07;;;12.30;99.90;;;;;;5034920;28;20044;-71
2023/04/19 02:08:40;;;;;;;10.48;4.88;;;12.20;99.90;;;;;;5034841;28;20060;-71
2023/04/19 02:11:25;;;;;;;16.45;4.85;;;12.10;99.90;;;;;;5034786;28;20026;-71
2023/04/19 02:13:51;;;;;;;9.70;4.63;;;12.10;99.90;;;;;;5034981;28;20026;-72
2023/04/19 02:16:17;;;;;;;16.60;5.07;;;11.90;99.90;;;;;;5034650;28;20112;-71
2023/04/19 02:18:45;;;;;;;12.95;4.60;;;11.90;99.90;;;;;;5034717;28;20140;-70
2023/04/19 02:21:11;;;;;;;13.50;4.68;;;11.90;99.90;;;;;;5034941;28;20021;-71
2023/04/19 02:23:37;;;;;;;11.07;5.18;;;11.90;99.90;;;;;;5034938;28;20061;-70
2023/04/19 02:26:04;;;;;;;13.63;5.10;;;11.80;99.90;;;;;;5034659;28;20108;-71
2023/04/19 02:28:30;;;;;;;15.70;5.40;;;11.70;99.90;;;;;;5034685;28;20033;-70
2023/04/19 02:30:57;;;;;;;10.63;5.07;;;11.70;99.90;;;;;;5034566;28;20025;-72
2023/04/19 02:33:25;;;;;;;17.73;5.80;;;11.70;99.90;;;;;;5034138;28;20036;-70
2023/04/19 02:35:51;;;;;;;14.70;5.30;;;11.70;99.90;;;;;;5034317;28;20108;-71
2023/04/19 02:38:17;;;;;;;12.90;5.43;;;11.80;99.90;;;;;;5034473;28;20037;-71
2023/04/19 02:40:43;;;;;;;18.63;6.38;;;11.80;99.90;;;;;;5034111;28;20030;-70
2023/04/19 02:43:09;;;;;;;15.82;5.70;;;11.80;99.90;;;;;;5016225;28;20029;-71
2023/04/19 02:45:36;;;;;;;12.10;5.70;;;11.80;99.90;;;;;;5034080;28;20385;-69
2023/04/19 02:48:02;;;;;;;15.73;5.87;;;11.90;99.90;;;;;;5033748;28;20264;-71
2023/04/19 02:50:28;;;;;;;11.93;5.30;;;11.80;99.90;;;;;;5034018;28;20071;-71
2023/04/19 02:52:54;;;;;;;15.50;5.83;;;11.80;99.90;;;;;;5032953;28;20299;-71
2023/04/19 02:55:21;;;;;;;16.17;5.13;;;11.80;99.90;;;;;;5032689;28;20100;-71
2023/04/19 02:57:47;;;;;;;;;;;11.70;99.90;;;;;;5033374;28;20207;-71
2023/04/19 03:00:13;;;;;;;10.18;5.22;;;11.60;99.90;;;;;;5033324;28;20317;-71
2023/04/19 03:02:42;;;;;;;10.38;5.13;;;11.50;99.90;;;;;;5032985;28;20052;-70
2023/04/19 03:05:09;;;;;;;15.40;5.95;;;11.40;99.90;;;;;;5032874;28;20025;-70
2023/04/19 03:07:35;;;;;;;15.45;5.88;;;11.30;99.90;;;;;;5033458;28;20497;-71
2023/04/19 03:10:01;;;;;;;12.10;5.13;;;11.30;99.90;;;;;;5033885;28;20057;-71
2023/04/19 03:12:27;;;;;;;12.70;5.63;;;11.30;99.90;;;;;;5033392;28;20052;-70
2023/04/19 03:14:53;;;;;;;13.85;5.28;;;11.30;99.90;;;;;;5034005;28;20272;-70
2023/04/19 03:17:20;;;;;;;13.93;5.30;;;11.30;99.90;;;;;;5033704;28;20464;-71
2023/04/19 03:19:46;;;;;;;;;;;11.30;99.90;;;;;;5034457;28;20025;-71
2023/04/19 03:22:12;;;;;;;11.63;5.27;;;11.30;99.90;;;;;;5033596;28;19905;-69
2023/04/19 03:24:38;;;;;;;8.38;4.72;;;11.20;99.90;;;;;;5016071;28;20275;-70
2023/04/19 03:27:05;;;;;;;9.35;3.97;;;11.10;99.90;;;;;;5034216;28;20406;-70
2023/04/19 03:29:31;;;;;;;12.80;4.45;;;11.10;99.90;;;;;;5032011;28;20021;-71
2023/04/19 03:31:57;;;;;;;11.27;4.25;;;10.90;99.90;;;;;;5028282;28;20033;-70
2023/04/19 03:34:27;;;;;;;11.73;4.53;;;10.90;99.90;;;;;;5015507;28;20053;-67
2023/04/19 03:36:54;;;;;;;12.27;4.93;;;10.80;99.90;;;;;;5031045;28;20426;-69
2023/04/19 03:39:21;;;;;;;10.75;4.78;;;10.80;99.90;;;;;;5029632;28;20529;-71
2023/04/19 03:41:47;;;;;;;;;;;10.80;99.90;;;;;;5028997;28;20037;-71
2023/04/19 03:44:13;;;;;;;11.03;4.80;;;10.70;99.90;;;;;;5031403;28;19931;-70
2023/04/19 03:46:39;;;;;;;13.57;4.63;;;10.80;99.90;;;;;;5030771;28;20410;-70
2023/04/19 03:49:05;;;;;;;10.23;4.38;;;10.90;99.90;;;;;;5033165;28;20091;-71
2023/04/19 03:51:31;;;;;;;9.15;4.30;;;10.90;99.90;;;;;;5031664;28;20354;-68
2023/04/19 03:53:58;;;;;;;12.65;4.60;;;10.90;99.90;;;;;;5031131;28;20063;-70
2023/04/19 03:56:24;;;;;;;9.40;3.30;;;10.80;99.90;;;;;;5031899;28;20037;-71
2023/04/19 03:58:50;;;;;;;8.50;4.03;;;10.80;99.90;;;;;;5032175;28;20033;-69
2023/04/19 04:01:20;;;;;;;16.35;4.50;;;10.80;99.90;;;;;;5033197;28;20127;-69
2023/04/19 04:03:47;;;;;;;8.50;3.97;;;10.80;99.90;;;;;;5033395;28;20026;-69
2023/04/19 04:06:13;;;;;;;10.77;4.00;;;11.00;99.90;;;;;;5033171;28;20072;-70
2023/04/19 04:08:39;;;;;;;5.97;3.53;;;10.90;99.90;;;;;;5033076;28;20389;-69
2023/04/19 04:11:05;;;;;;;13.05;4.53;;;10.80;99.90;;;;;;5033090;28;20260;-69
2023/04/19 04:13:31;;;;;;;8.97;4.40;;;10.70;99.90;;;;;;5033008;28;20091;-69
2023/04/19 04:15:57;;;;;;;9.43;3.70;;;10.60;99.90;;;;;;5032910;28;20264;-69
2023/04/19 04:18:23;;;;;;;9.73;3.92;;;10.60;99.90;;;;;;5033370;28;20087;-70
2023/04/19 04:20:49;;;;;;;15.30;5.07;;;10.60;99.90;;;;;;5033522;28;20021;-71
2023/04/19 04:23:16;;;;;;;8.25;4.28;;;10.60;99.90;;;;;;5033556;28;20539;-70
2023/04/19 04:25:42;;;;;;;10.37;4.00;;;10.50;99.90;;;;;;5033216;28;20026;-70
2023/04/19 04:28:09;;;;;;;11.50;4.57;;;10.60;99.90;;;;;;5033424;28;20358;-69
2023/04/19 04:30:35;;;;;;;8.35;3.78;;;10.60;99.90;;;;;;5033279;28;20022;-70
2023/04/19 04:33:01;;;;;;;7.40;3.60;;;10.70;99.90;;;;;;5033390;28;20034;-71
2023/04/19 04:35:28;;;;;;;11.07;3.75;;;10.80;99.90;;;;;;5033224;28;20507;-70
2023/04/19 04:37:55;;;;;;;8.27;3.30;;;11.00;99.90;;;;;;5033141;28;20504;-70
2023/04/19 04:40:21;;;;;;;;;;;11.10;99.90;;;;;;5034136;28;20025;-71
2023/04/19 04:42:48;;;;;;;8.05;3.25;;;11.20;99.90;;;;;;5033015;28;20008;-71
2023/04/19 04:45:17;;;;;;;8.88;3.38;;;11.20;99.90;;;;;;5032930;28;20018;-72
2023/04/19 04:47:45;;;;;;;8.57;3.80;;;11.10;99.90;;;;;;5032887;28;20030;-72
2023/04/19 04:50:11;;;;;;;9.38;3.92;;;11.10;99.90;;;;;;5032845;28;20021;-72
2023/04/19 04:52:37;;;;;;;11.18;4.35;;;11.10;99.90;;;;;;5033004;28;20106;-72
2023/04/19 04:55:03;;;;;;;7.80;3.70;;;11.20;99.90;;;;;;5033039;28;20021;-73
2023/04/19 04:57:29;;;;;;;12.02;4.10;;;11.20;99.90;;;;;;5032809;28;20040;-73
2023/04/19 04:59:55;;;;;;;6.25;3.50;;;11.20;99.90;;;;;;5032891;28;20036;-72
2023/04/19 05:02:22;;;;;;;13.07;3.20;;;11.10;99.90;;;;;;5032995;28;20057;-72
2023/04/19 05:04:48;;;;;;;;;;;11.10;99.90;;;;;;5033364;28;20128;-74
2023/04/19 05:07:14;;;;;;;12.93;3.92;;;11.10;99.90;;;;;;5032740;28;19940;-74
2023/04/19 05:09:40;;;;;;;8.18;3.78;;;11.10;99.90;;;;;;5014831;28;20030;-73
2023/04/19 05:12:06;;;;;;;9.55;3.65;;;11.10;99.90;;;;;;5032342;28;20045;-72
2023/04/19 05:14:34;;;;;;;6.30;3.17;;;11.10;99.90;;;;;;5032120;28;20049;-73
2023/04/19 05:17:00;;;;;;;10.00;3.95;;;11.50;99.90;;;;;;5031390;28;20033;-72
2023/04/19 05:19:26;;;;;;;14.18;3.53;;;12.30;99.90;;;;;;5032506;28;20137;-72
2023/04/19 05:21:52;;;;;;;8.50;3.05;;;13.10;99.90;;;;;;5014939;28;20025;-73
2023/04/19 05:24:18;;;;;;;13.15;3.15;;;13.60;99.90;;;;;;5032938;28;20029;-74
2023/04/19 05:26:44;;;;;;;8.60;3.05;;;14.60;99.90;;;;;;5032840;28;20355;-73
2023/04/19 05:29:10;;;;;;;5.73;2.70;;;14.60;99.90;;;;;;5032181;28;20079;-73
2023/04/19 05:31:36;;;;;;;7.88;3.08;;;14.80;99.90;;;;;;5032103;28;20052;-72
2023/04/19 05:34:02;;;;;;;9.70;2.67;;;15.20;99.90;;;;;;5014020;28;20025;-73
2023/04/19 05:36:31;;;;;;;7.37;2.70;;;15.80;99.90;;;;;;5032094;28;20101;-72
2023/04/19 05:38:57;;;;;;;6.68;2.47;;;16.20;99.90;;;;;;5031705;28;20038;-74
2023/04/19 05:41:23;;;;;;;9.03;2.87;;;16.70;99.90;;;;;;5032570;28;20033;-73
2023/04/19 05:43:49;;;;;;;6.23;2.73;;;16.90;99.90;;;;;;5032086;28;20740;-73
2023/04/19 05:46:15;;;;;;;8.30;2.75;;;16.90;99.90;;;;;;5032094;28;20049;-74
2023/04/19 05:48:41;;;;;;;10.57;2.58;;;17.20;99.90;;;;;;5031460;28;20026;-73
2023/04/19 05:51:07;;;;;;;5.97;2.47;;;17.20;99.90;;;;;;5031298;28;20026;-74
2023/04/19 05:53:45;;;;;;;8.83;2.87;;;17.40;99.90;;;;;;5031076;28;20286;-71
2023/04/19 05:56:11;;;;;;;6.72;2.80;;;17.80;99.90;;;;;;5031178;28;20252;-72
2023/04/19 05:58:37;;;;;;;6.78;2.60;;;19.20;99.90;;;;;;5031001;28;20122;-72
2023/04/19 06:01:06;;;;;;;14.05;3.10;;;18.90;99.90;;;;;;5031453;28;20487;-70
2023/04/19 06:03:32;;;;;;;13.07;2.67;;;18.70;99.90;;;;;;5031106;28;20083;-72
2023/04/19 06:05:58;;;;;;;9.45;2.40;;;18.60;99.90;;;;;;5031357;28;20033;-73
2023/04/19 06:08:25;;;;;;;8.38;2.63;;;19.30;99.90;;;;;;5031398;28;20044;-73
2023/04/19 06:10:53;;;;;;;8.27;2.35;;;20.00;99.90;;;;;;5030898;28;20083;-74
2023/04/19 06:13:21;;;;;;;8.13;2.40;;;21.00;99.90;;;;;;5030728;28;20121;-74
2023/04/19 06:15:48;;;;;;;9.70;2.63;;;21.70;99.90;;;;;;5030918;28;20036;-74
2023/04/19 06:18:14;;;;;;;12.13;2.17;;;24.10;99.90;;;;;;5030893;28;20063;-70
2023/04/19 06:20:40;;;;;;;14.82;3.05;;;23.00;99.90;;;;;;5031200;28;20028;-71
2023/04/19 06:23:06;;;;;;;8.60;2.38;;;21.70;99.90;;;;;;5031316;28;20033;-68
2023/04/19 06:25:32;;;;;;;8.98;2.63;;;21.50;99.90;;;;;;5031302;28;20029;-69
2023/04/19 06:27:59;;;;;;;8.88;2.28;;;20.30;99.90;;;;;;5031689;28;20049;-71
2023/04/19 06:30:25;;;;;;;8.80;2.03;;;21.40;99.90;;;;;;5034629;28;20025;-69
2023/04/19 06:32:51;;;;;;;4.78;1.60;;;23.10;99.90;;;;;;5034938;28;20473;-70
2023/04/19 06:35:17;;;;;;;5.20;1.63;;;24.40;99.90;;;;;;5034810;28;20033;-69
2023/04/19 06:37:43;;;;;;;4.32;1.58;;;24.90;99.90;;;;;;5034712;28;20041;-69
2023/04/19 06:40:10;;;;;;;5.38;2.03;;;25.90;99.90;;;;;;5034091;28;20116;-70
2023/04/19 06:42:37;;;;;;;7.22;1.80;;;26.40;99.90;;;;;;5034569;28;20026;-71
2023/04/19 06:45:03;;;;;;;6.68;1.88;;;29.20;99.90;;;;;;5034771;28;20036;-68
2023/04/19 06:47:29;;;;;;;24.13;13.32;;;30.90;99.60;;;;;;5034677;28;20389;-73
2023/04/19 06:49:56;;;;;;;10.23;4.40;;;31.90;98.10;;;;;;5033566;28;20038;-72
2023/04/19 06:52:22;;;;;;;4.93;1.77;;;31.30;97.00;;;;;;5033898;28;20014;-72
2023/04/19 06:54:49;;;;;;;;;;;30.80;96.10;;;;;;5033767;28;20091;-71
2023/04/19 06:57:18;;;;;;;10.73;4.38;;;29.70;97.30;;;;;;5034359;28;20380;-72
2023/04/19 06:59:44;;;;;;;8.98;3.70;;;31.00;96.20;;;;;;5035028;28;20053;-71
2023/04/19 07:02:10;;;;;;;8.90;2.90;;;30.70;96.60;;;;;;5035174;28;20079;-73
2023/04/19 07:04:36;;;;;;;;;;;31.30;95.70;;;;;;5035830;28;20131;-71
2023/04/19 07:07:05;;;;;;;9.00;1.65;;;30.60;95.20;;;;;;5034083;28;19905;-73
2023/04/19 07:09:31;;;;;;;5.40;2.10;;;31.00;95.20;;;;;;5016542;28;20025;-71
2023/04/19 07:11:57;;;;;;;10.00;2.17;;;30.80;95.20;;;;;;5034248;28;20038;-72
2023/04/19 07:14:23;;;;;;;6.07;1.95;;;30.90;94.90;;;;;;5034237;28;20041;-73
2023/04/19 07:16:52;;;;;;;4.10;1.50;;;30.70;95.00;;;;;;5033920;28;20026;-71
2023/04/19 07:19:19;;;;;;;5.38;1.40;;;31.00;94.40;;;;;;5033933;28;20124;-72
2023/04/19 07:42:06;;;;;;;12.75;2.45;;;28.70;97.10;;;;;;5130654;27;20718;-73
2023/04/19 07:44:32;;;;;;;8.00;2.13;;;24.30;99.90;;;;;;5128992;28;20478;-71
2023/04/19 07:46:58;;;;;;;17.13;6.85;;;23.40;99.90;;;;;;5130179;27;20031;-72
2023/04/19 07:49:24;;;;;;;9.07;2.53;;;23.40;99.90;;;;;;5130253;27;20020;-71
2023/04/19 07:51:50;;;;;;;7.70;2.40;;;23.30;99.90;;;;;;5129473;27;20122;-71
2023/04/19 07:54:19;;;;;;;10.05;3.00;;;23.50;99.90;;;;;;5129592;28;20020;-70
2023/04/19 07:56:45;;;;;;;12.63;2.70;;;23.70;99.90;;;;;;5129429;27;20106;-73
2023/04/19 07:59:11;;;;;;;8.02;2.60;;;23.20;99.90;;;;;;5129217;28;20035;-73
2023/04/19 08:01:37;;;;;;;11.05;2.78;;;23.30;99.90;;;;;;5128878;28;20030;-70
2023/04/19 08:04:03;;;;;;;8.40;2.38;;;23.10;99.90;;;;;;5129099;27;20529;-72
2023/04/19 08:06:31;;;;;;;9.27;2.15;;;22.80;99.90;;;;;;5129178;27;20050;-68
2023/04/19 08:08:57;;;;;;;9.02;2.45;;;22.20;99.90;;;;;;5128900;27;20054;-71
2023/04/19 08:11:24;;;;;;;9.38;2.42;;;21.80;99.90;;;;;;5128906;28;20031;-70
2023/04/19 08:13:50;;;;;;;7.63;2.40;;;21.90;99.90;;;;;;5129177;27;20020;-71
2023/04/19 08:16:16;;;;;;;5.72;2.20;;;22.40;99.90;;;;;;5128545;27;20027;-72
2023/04/19 08:18:45;;;;;;;8.82;2.38;;;22.80;99.90;;;;;;5128971;28;20031;-71
2023/04/19 08:21:11;;;;;;;9.43;2.80;;;22.90;99.90;;;;;;5129696;27;20104;-72
2023/04/19 08:23:38;;;;;;;8.27;2.50;;;22.90;99.90;;;;;;5129374;27;20036;-72
2023/04/19 08:26:04;;;;;;;13.13;3.20;;;23.10;99.90;;;;;;5129767;27;20081;-71
2023/04/19 08:28:30;;;;;;;8.82;2.90;;;22.90;99.90;;;;;;5129343;27;20034;-70
2023/04/19 08:30:58;;;;;;;8.15;2.70;;;22.50;99.90;;;;;;5128001;28;20042;-72
2023/04/19 08:33:24;;;;;;;9.65;2.63;;;22.50;99.90;;;;;;5129912;27;20058;-72
2023/04/19 08:35:50;;;;;;;7.85;2.85;;;22.70;99.90;;;;;;5129477;27;20033;-72
2023/04/19 08:38:16;;;;;;;9.55;4.03;;;22.70;99.90;;;;;;5129405;28;20102;-71
2023/04/19 08:40:50;;;;;;;12.27;2.90;;;22.70;99.90;;;;;;5129512;28;20078;-75
2023/04/19 08:43:18;;;;;;;8.85;3.28;;;23.00;99.90;;;;;;5115291;28;20114;-70
2023/04/19 08:45:47;;;;;;;9.10;2.83;;;22.80;99.90;;;;;;5115264;28;20080;-71
2023/04/19 08:48:14;;;;;;;6.57;2.50;;;22.70;99.90;;;;;;5113472;28;20435;-71
2023/04/19 08:50:48;;;;;;;10.45;2.92;;;23.00;99.90;;;;;;5115194;28;20085;-70
2023/04/19 08:53:15;;;;;;;7.20;2.50;;;23.10;99.90;;;;;;5114575;28;20032;-70
2023/04/19 08:55:42;;;;;;;7.38;2.55;;;22.70;99.90;;;;;;5115303;28;20020;-71
2023/04/19 08:58:08;;;;;;;7.07;2.28;;;22.40;99.90;;;;;;5115378;27;20112;-71
2023/04/19 09:00:38;;;;;;;5.35;2.13;;;20.80;99.90;;;;;;5113802;28;20364;-70
2023/04/19 09:03:10;;;;;;;12.88;2.50;;;21.00;99.90;;;;;;5115358;28;20027;-71
2023/04/19 09:05:36;;;;;;;6.57;2.50;;;21.30;99.90;;;;;;5113585;28;20096;-71
2023/04/19 09:08:26;;;;;;;8.57;3.03;;;21.10;99.90;;;;;;5114886;28;20107;-72
2023/04/19 09:10:53;;;;;;;2.63;1.38;;;21.20;99.90;;;;;;5113597;28;20032;-71
2023/04/19 09:13:20;;;;;;;3.83;1.60;;;21.40;99.90;;;;;;5115155;28;20044;-71
2023/04/19 09:15:46;;;;;;;4.38;1.45;;;21.60;99.90;;;;;;5112742;28;20382;-71
2023/04/19 09:18:13;;;;;;;6.97;1.98;;;21.80;99.90;;;;;;5114572;28;20320;-72
2023/04/19 09:20:43;;;;;;;6.93;1.65;;;21.60;99.90;;;;;;5113136;28;20027;-70
2023/04/19 09:23:13;;;;;;;9.02;1.50;;;21.90;99.90;;;;;;5105179;28;20031;-69
2023/04/19 09:25:56;;;;;;;5.70;1.50;;;21.60;99.90;;;;;;5095784;28;20466;-71
2023/04/19 09:28:23;;;;;;;3.78;1.10;;;21.50;99.90;;;;;;5094106;28;20012;-70
2023/04/19 09:30:49;;;;;;;5.03;1.60;;;21.60;99.90;;;;;;5097152;28;20141;-71
2023/04/19 09:33:38;;;;;;;3.42;1.23;;;21.10;99.90;;;;;;5114454;28;20058;-72
2023/04/19 09:36:05;;;;;;;7.35;1.40;;;20.70;99.90;;;;;;5114838;28;20015;-72
2023/04/19 09:38:58;;;;;;;4.90;1.75;;;21.10;99.90;;;;;;5114231;28;20045;-72
2023/04/19 09:41:25;;;;;;;4.03;1.63;;;21.10;99.90;;;;;;5109990;28;20260;-73
2023/04/19 09:43:51;;;;;;;6.28;1.52;;;21.10;99.90;;;;;;5113464;28;20020;-71
2023/04/19 09:46:35;;;;;;;28.10;9.80;;;21.20;99.90;;;;;;5113896;28;20129;-71
2023/04/19 09:49:16;;;;;;;12.80;4.68;;;21.20;99.90;;;;;;5113813;28;20030;-72
2023/04/19 09:51:44;;;;;;;19.13;4.38;;;21.30;99.90;;;;;;5113688;28;20093;-72
2023/04/19 09:54:14;;;;;;;8.68;2.70;;;21.50;99.90;;;;;;5112525;27;20426;-72
2023/04/19 09:56:41;;;;;;;9.00;2.90;;;21.50;99.90;;;;;;5112355;28;20020;-73
2023/04/19 09:59:11;;;;;;;;;;;21.20;99.90;;;;;;5113921;28;20035;-73
2023/04/19 10:01:58;;;;;;;5.30;1.58;;;21.10;99.90;;;;;;5111974;28;20285;-72
2023/04/19 10:04:25;;;;;;;5.10;1.30;;;21.10;99.90;;;;;;5112072;28;20577;-72
2023/04/19 10:06:54;;;;;;;3.10;1.20;;;20.90;99.90;;;;;;5112499;28;20042;-72
2023/04/19 10:09:24;;;;;;;3.75;1.15;;;20.60;99.90;;;;;;5113327;28;20031;-72
2023/04/19 10:11:52;;;;;;;3.05;1.25;;;21.00;99.90;;;;;;5113736;28;20024;-73
2023/04/19 10:14:23;;;;;;;8.82;3.05;;;20.70;99.90;;;;;;5113640;28;20019;-72
2023/04/19 10:16:50;;;;;;;4.53;1.40;;;20.60;99.90;;;;;;5113563;28;20028;-71
2023/04/19 10:19:19;;;;;;;4.50;1.27;;;20.40;99.90;;;;;;5113502;28;20031;-71
2023/04/19 10:21:47;;;;;;;4.85;1.35;;;20.30;99.90;;;;;;5113380;27;20099;-72
2023/04/19 10:24:14;;;;;;;8.50;1.80;;;20.20;99.90;;;;;;5113156;28;20027;-68
2023/04/19 10:27:12;;;;;;;5.78;1.70;;;20.20;99.90;;;;;;5113233;28;20080;-73
2023/04/19 10:30:09;;;;;;;9.57;1.80;;;20.10;99.90;;;;;;5112997;28;20416;-72
2023/04/19 10:32:40;;;;;;;6.13;2.00;;;20.10;99.90;;;;;;5113174;28;20031;-73
2023/04/19 10:35:20;;;;;;;9.00;1.83;;;20.30;99.90;;;;;;5112968;28;20102;-71
2023/04/19 10:38:01;;;;;;;9.18;2.00;;;20.20;99.90;;;;;;5112778;28;20110;-72
2023/04/19 10:40:56;;;;;;;9.93;2.00;;;20.30;99.90;;;;;;5112804;28;20035;-70
2023/04/19 10:43:33;;;;;;;7.18;1.50;;;20.50;99.90;;;;;;5111350;28;20055;-71
2023/04/19 10:46:21;;;;;;;7.88;1.58;;;20.60;99.90;;;;;;5112551;28;20434;-72
2023/04/19 10:48:52;;;;;;;7.18;1.55;;;20.40;99.90;;;;;;5112899;28;20038;-71
2023/04/19 10:51:34;;;;;;;7.15;1.50;;;20.30;99.90;;;;;;5110697;28;20080;-70
2023/04/19 10:54:26;;;;;;;5.65;1.42;;;20.50;99.90;;;;;;5111807;28;20028;-71
2023/04/19 10:57:09;;;;;;;5.90;1.35;;;20.70;99.90;;;;;;5112524;28;20024;-72
2023/04/19 10:59:37;;;;;;;6.63;1.52;;;20.90;99.90;;;;;;5112749;28;20030;-72
2023/04/19 11:02:26;;;;;;;4.22;1.48;;;20.90;99.90;;;;;;5112400;28;20024;-77
2023/04/19 11:04:52;;;;;;;4.82;1.77;;;20.60;99.90;;;;;;5112017;28;20031;-72
2023/04/19 11:07:22;;;;;;;5.57;1.83;;;20.80;99.90;;;;;;5112133;28;20068;-71
2023/04/19 11:09:50;;;;;;;6.97;2.03;;;20.90;99.90;;;;;;5111643;28;20031;-73
2023/04/19 11:12:20;;;;;;;7.07;1.63;;;21.00;99.90;;;;;;5111863;28;20020;-71
2023/04/19 11:14:58;;;;;;;3.38;1.60;;;21.00;99.90;;;;;;5110138;28;20053;-72
2023/04/19 11:17:30;;;;;;;5.50;1.45;;;21.30;99.90;;;;;;5111600;28;20039;-72
2023/04/19 11:20:10;;;;;;;4.63;1.63;;;21.50;99.90;;;;;;5112317;28;20365;-72
2023/04/19 11:22:40;;;;;;;6.35;1.73;;;21.50;99.90;;;;;;5111798;28;20099;-73
2023/04/19 11:25:17;;;;;;;4.65;1.50;;;21.30;99.90;;;;;;5110587;28;20043;-73
2023/04/19 11:27:46;;;;;;;5.30;1.52;;;21.30;99.90;;;;;;5112198;28;20133;-71
2023/04/19 11:30:18;;;;;;;8.45;2.50;;;21.50;99.90;;;;;;5112259;28;20038;-70
2023/04/19 11:32:51;;;;;;;4.78;1.20;;;21.20;99.90;;;;;;5112235;28;20027;-73
2023/04/19 11:35:27;;;;;;;8.52;1.60;;;21.00;99.90;;;;;;5112167;28;20027;-73
2023/04/19 11:37:55;;;;;;;9.43;1.55;;;20.90;99.90;;;;;;5110663;28;20023;-72
2023/04/19 11:40:25;;;;;;;6.28;1.63;;;21.00;99.90;;;;;;5111955;28;20418;-72
2023/04/19 11:42:59;;;;;;;3.92;1.38;;;21.10;99.90;;;;;;5112050;28;20016;-72
2023/04/19 11:45:31;;;;;;;4.22;1.20;;;20.90;99.90;;;;;;5112457;28;20138;-71
2023/04/19 11:47:59;;;;;;;6.57;1.63;;;20.50;99.90;;;;;;5112614;28;20114;-72
2023/04/19 11:50:45;;;;;;;3.75;1.52;;;20.60;99.90;;;;;;5112336;28;20081;-71
2023/04/19 11:53:22;;;;;;;5.60;1.45;;;20.60;99.90;;;;;;5111974;28;20039;-71
2023/04/19 11:55:56;;;;;;;5.15;1.70;;;20.80;99.90;;;;;;5112383;28;20020;-71
2023/04/19 11:58:35;;;;;;;8.38;1.90;;;20.80;99.90;;;;;;5110851;28;20323;-72
2023/04/19 12:01:09;;;;;;;5.30;2.00;;;20.80;99.90;;;;;;5111689;28;20168;-70
2023/04/19 12:03:52;;;;;;;10.98;2.25;;;20.90;99.90;;;;;;5110785;28;20151;-72
2023/04/19 12:06:26;;;;;;;13.82;2.33;;;21.00;99.90;;;;;;5112773;28;20546;-72
2023/04/19 12:08:54;;;;;;;8.63;2.00;;;20.70;99.90;;;;;;5111996;28;20023;-72
2023/04/19 12:11:25;;;;;;;5.22;1.75;;;20.90;99.90;;;;;;5112334;28;20379;-71
2023/04/19 12:14:13;;;;;;;9.98;1.88;;;21.10;99.90;;;;;;5112827;28;20041;-72
2023/04/19 12:16:40;;;;;;;7.30;1.88;;;21.00;99.90;;;;;;5113470;28;20059;-71
2023/04/19 12:19:16;;;;;;;4.70;1.77;;;21.00;99.90;;;;;;5116048;28;20024;-72
2023/04/19 12:21:43;;;;;;;6.75;1.90;;;21.10;99.90;;;;;;5116249;28;20035;-70
2023/04/19 12:24:10;;;;;;;10.43;2.20;;;21.10;99.90;;;;;;5116173;28;20034;-73
2023/04/19 12:26:51;;;;;;;6.47;1.30;;;21.00;99.90;;;;;;5116216;28;20027;-71
2023/04/19 12:29:17;;;;;;;6.57;1.75;;;20.80;99.90;;;;;;5116294;28;20102;-72
2023/04/19 12:31:43;;;;;;;11.23;1.80;;;20.90;99.90;;;;;;5115985;28;20039;-73
2023/04/19 12:34:09;;;;;;;5.97;1.65;;;20.80;99.90;;;;;;5115995;28;20049;-73
2023/04/19 12:36:35;;;;;;;6.22;1.95;;;20.70;99.90;;;;;;5116036;28;20026;-72
2023/04/19 12:39:01;;;;;;;6.05;1.75;;;20.70;99.90;;;;;;5115932;28;20016;-71
2023/04/19 12:41:27;;;;;;;6.93;1.65;;;20.70;99.90;;;;;;5115703;28;20043;-72
2023/04/19 12:43:54;;;;;;;8.82;1.77;;;20.50;99.90;;;;;;5114466;28;20031;-73
2023/04/19 12:46:22;;;;;;;6.70;1.65;;;20.30;99.90;;;;;;5115921;27;20019;-72
2023/04/19 12:48:48;;;;;;;8.05;1.70;;;20.60;99.90;;;;;;5115954;28;20106;-71
2023/04/19 12:51:15;;;;;;;7.75;2.00;;;20.50;99.90;;;;;;5115484;28;20063;-71
2023/04/19 12:53:46;;;;;;;6.57;1.65;;;20.50;99.90;;;;;;5115264;28;20027;-70
2023/04/19 12:56:14;;;;;;;4.88;1.90;;;20.40;99.90;;;;;;5115484;28;20058;-71
2023/04/19 12:58:40;;;;;;;6.32;1.65;;;20.60;99.90;;;;;;5115222;28;20024;-72
2023/04/19 13:01:06;;;;;;;3.70;1.30;;;20.90;99.90;;;;;;5115129;28;20107;-72
2023/04/19 13:03:35;;;;;;;5.55;1.25;;;21.10;99.90;;;;;;5115357;28;20028;-71
2023/04/19 13:06:04;;;;;;;5.85;1.17;;;20.70;99.90;;;;;;5115382;28;20148;-70
2023/04/19 13:08:32;;;;;;;6.60;1.70;;;20.70;99.90;;;;;;5115484;28;20474;-69
2023/04/19 13:11:01;;;;;;;6.63;1.92;;;20.70;99.90;;;;;;5115140;28;20035;-71
2023/04/19 13:13:28;;;;;;;6.88;2.22;;;20.70;99.90;;;;;;5114976;28;20381;-72